Station Historical Data
Daily Summary for March 30, 2017 Units:  Metric    English   Both
« Previous Day
Next Day »
Daily Weekly Monthly Yearly Custom
  High: Low: Average:
Temperature: 27.6 °C 15.7 °C 21.4 °C
Dew Point: 14.9 °C 8.3 °C 12.8 °C
Humidity: 89% 32% 61%
Wind Speed: 4.8km/h 0km/h 0.6km/h
Wind Gust: 12.9km/h - -
Wind- - NW
Pressure: 1015.8 hPa 1008 hPa -
Precipitation: 4.83 mm    
Historical Graphs
 
 
Tabular Data for March 30, 2017
Time Temperature Dew Point Pressure Wind Wind Speed Wind Gust Humidity Rainfall Rate (Hourly) solar Conditions
00:00 20.1 °C 13.7 °C 1015.1 hPa Calm     67% 0 mm 0.0 W/m2 SCT
00:15 20 °C 13.9 °C 1014.8 hPa Calm     68% 0 mm 0.0 W/m2 SCT
00:30 19.8 °C 14 °C 1014.8 hPa Calm     69% 0 mm 0.0 W/m2 SCT
00:45 19.9 °C 13.8 °C 1014.8 hPa Calm     68% 0 mm 0.0 W/m2 SCT
01:00 20 °C 14.3 °C 1014.8 hPa Calm     70% 0 mm 0.0 W/m2 SCT
01:15 19.6 °C 14.4 °C 1014.4 hPa Calm     72% 0 mm 0.0 W/m2 SCT
01:30 19.2 °C 14.4 °C 1014.8 hPa Calm     74% 0 mm 0.0 W/m2 SCT
01:45 18.8 °C 14.3 °C 1014.8 hPa Calm     75% 0 mm 0.0 W/m2 SCT
02:00 18.4 °C 14.3 °C 1014.4 hPa Calm     77% 0 mm 0.0 W/m2 SCT
02:15 18.1 °C 13.8 °C 1014.4 hPa Calm     76% 0 mm 0.0 W/m2 SCT
02:30 18.1 °C 13.8 °C 1014.4 hPa Calm     76% 0 mm 0.0 W/m2 SCT
02:45 18.1 °C 13.8 °C 1014.1 hPa Calm     76% 0 mm 0.0 W/m2 SCT
03:00 18.1 °C 13.8 °C 1014.1 hPa Calm     76% 0 mm 0.0 W/m2 SCT
03:15 18.1 °C 13.8 °C 1014.1 hPa Calm     76% 0 mm 0.0 W/m2 SCT
03:30 18.1 °C 13.8 °C 1013.8 hPa Calm     76% 0 mm 0.0 W/m2 SCT
03:45 18.1 °C 13.8 °C 1013.8 hPa Calm     76% 0 mm 0.0 W/m2 SCT
04:00 18.1 °C 13.8 °C 1014.1 hPa Calm     76% 0 mm 0.0 W/m2 SCT
04:15 18.1 °C 13.8 °C 1013.8 hPa Calm     76% 0 mm 0.0 W/m2 SCT
04:30 18.1 °C 13.8 °C 1014.1 hPa Calm     76% 0 mm 0.0 W/m2 SCT
04:45 18.1 °C 13.8 °C 1014.1 hPa Calm     76% 0 mm 0.0 W/m2 SCT
05:00 18.1 °C 13.8 °C 1014.1 hPa Calm     76% 0 mm 0.0 W/m2 SCT
05:15 18.1 °C 13.8 °C 1014.1 hPa Calm     76% 0 mm 0.0 W/m2 SCT
05:30 18.1 °C 13.8 °C 1014.1 hPa Calm     76% 0 mm 0.0 W/m2 SCT
05:45 18.1 °C 13.8 °C 1014.1 hPa Calm     76% 0 mm 0.0 W/m2 SCT
06:00 18.1 °C 13.8 °C 1014.1 hPa Calm     76% 0 mm 0.0 W/m2 SCT
06:15 18.1 °C 13.8 °C 1014.1 hPa Calm     76% 0 mm 0.0 W/m2 SCT
06:30 18.1 °C 13.8 °C 1013.8 hPa Calm     76% 0 mm 0.0 W/m2 SCT
06:45 18.1 °C 13.8 °C 1014.1 hPa Calm     76% 0 mm 0.0 W/m2 SCT
07:00 18.1 °C 13.8 °C 1014.1 hPa Calm     76% 0 mm 0.0 W/m2 SCT
07:15 18.1 °C 13.8 °C 1014.4 hPa Calm     76% 0 mm 0.0 W/m2 SCT
07:30 18.1 °C 13.8 °C 1014.8 hPa Calm     76% 0 mm 0.0 W/m2 SCT
07:45 18.1 °C 13.8 °C 1014.8 hPa Calm     76% 0 mm 0.0 W/m2 SCT
08:00 18.1 °C 13.8 °C 1015.1 hPa Calm     76% 0 mm 0.0 W/m2 SCT
08:15 18.1 °C 13.8 °C 1015.1 hPa Calm     76% 0 mm 0.0 W/m2 SCT
08:30 18.1 °C 13.8 °C 1015.5 hPa Calm     76% 0 mm 0.0 W/m2 SCT
08:45 16.2 °C 14.2 °C 1015.5 hPa Calm     88% 0 mm 0.0 W/m2 SCT
09:00 16.9 °C 14.9 °C 1015.8 hPa Calm     88% 0 mm 0.0 W/m2 SCT
09:15 17.5 °C 14.8 °C 1015.8 hPa Calm     84% 0 mm 0.0 W/m2 SCT
09:30 18 °C 14.9 °C 1015.8 hPa Calm     82% 0 mm 0.0 W/m2 SCT
09:45 18.4 °C 14.7 °C 1015.8 hPa Calm   1.6 km/h 79% 0 mm 0.0 W/m2 SCT
10:00 19 °C 14.7 °C 1015.8 hPa Calm   1.6 km/h 76% 0 mm 0.0 W/m2 SCT
10:15 19.6 °C 14 °C 1015.8 hPa Calm     70% 0 mm 0.0 W/m2 SCT
10:30 20.8 °C 14.2 °C 1015.8 hPa Calm   3.2 km/h 66% 0 mm 0.0 W/m2 SCT
10:45 21.9 °C 13.3 °C 1015.8 hPa Calm   3.2 km/h 58% 0 mm 0.0 W/m2 SCT
11:00 22.3 °C 13.4 °C 1015.5 hPa WNW 1.6 km/h 3.2 km/h 57% 0 mm 0.0 W/m2 SCT
11:15 22.7 °C 13.4 °C 1015.1 hPa Calm   4.8 km/h 56% 0 mm 0.0 W/m2 SCT
11:30 23 °C 13.5 °C 1015.1 hPa Calm   3.2 km/h 55% 0 mm 0.0 W/m2 SCT
11:45 23.4 °C 13 °C 1014.8 hPa NW 1.6 km/h 4.8 km/h 52% 0 mm 0.0 W/m2 SCT
12:00 23.6 °C 13.5 °C 1014.8 hPa Calm   4.8 km/h 53% 0 mm 0.0 W/m2 SCT
12:15 23.3 °C 13.2 °C 1014.8 hPa Calm   4.8 km/h 53% 0 mm 0.0 W/m2 SCT
12:30 23.3 °C 13.8 °C 1014.4 hPa NW 1.6 km/h 8 km/h 55% 0 mm 0.0 W/m2 SCT
12:45 23.7 °C 12.9 °C 1014.1 hPa NW 1.6 km/h 8 km/h 51% 0 mm 0.0 W/m2 SCT
13:00 24.2 °C 13.1 °C 1013.8 hPa WNW 1.6 km/h 8 km/h 50% 0 mm 0.0 W/m2 SCT
13:15 25.3 °C 12.9 °C 1013.4 hPa West 3.2 km/h 9.7 km/h 46% 0 mm 0.0 W/m2 SCT
13:30 25.7 °C 12.2 °C 1012.8 hPa WNW 1.6 km/h 9.7 km/h 43% 0 mm 0.0 W/m2 SCT
13:45 26.5 °C 12.6 °C 1012.8 hPa West 1.6 km/h 8 km/h 42% 0 mm 0.0 W/m2 SCT
14:00 26.2 °C 11.9 °C 1012.1 hPa NW 1.6 km/h 9.7 km/h 41% 0 mm 0.0 W/m2 SCT
14:15 26.8 °C 10.9 °C 1012.1 hPa NW 3.2 km/h 8 km/h 37% 0 mm 0.0 W/m2 SCT
14:30 27.3 °C 11.3 °C 1011.7 hPa WNW 3.2 km/h 8 km/h 37% 0 mm 0.0 W/m2 SCT
14:45 27.4 °C 12.3 °C 1011.1 hPa NNW 1.6 km/h 9.7 km/h 39% 0 mm 0.0 W/m2 SCT
15:00 27.6 °C 11.2 °C 1010.7 hPa WNW 3.2 km/h 11.3 km/h 36% 0 mm 0.0 W/m2 SCT
15:15 27.2 °C 10.4 °C 1010.7 hPa NW 4.8 km/h 11.3 km/h 35% 0 mm 0.0 W/m2 SCT
15:30 26.8 °C 10.9 °C 1010.4 hPa Calm   12.9 km/h 37% 0 mm 0.0 W/m2 SCT
15:45 26.8 °C 9.7 °C 1010 hPa WNW 1.6 km/h 11.3 km/h 34% 0 mm 0.0 W/m2 SCT
16:00 26.8 °C 10.9 °C 1009.7 hPa WNW 1.6 km/h 12.9 km/h 37% 0 mm 0.0 W/m2 SCT
16:15 26.6 °C 8.6 °C 1009.7 hPa NNW 1.6 km/h 9.7 km/h 32% 0 mm 0.0 W/m2 SCT
16:30 26.6 °C 8.6 °C 1009.7 hPa NW 1.6 km/h 8 km/h 32% 0 mm 0.0 W/m2 SCT
16:45 26.8 °C 8.7 °C 1009.4 hPa NW 4.8 km/h 12.9 km/h 32% 0 mm 0.0 W/m2 SCT
17:00 26.7 °C 8.7 °C 1009 hPa NW 1.6 km/h 9.7 km/h 32% 0 mm 0.0 W/m2 SCT
17:15 26.3 °C 8.3 °C 1009 hPa NW 3.2 km/h 9.7 km/h 32% 0 mm 0.0 W/m2 SCT
17:30 26.1 °C 9 °C 1008.7 hPa Calm   8 km/h 34% 0 mm 0.0 W/m2 SCT
17:45 25.9 °C 9.7 °C 1008.7 hPa WNW 1.6 km/h 8 km/h 36% 0 mm 0.0 W/m2 SCT
18:00 25.7 °C 9.6 °C 1008.7 hPa NW 1.6 km/h 8 km/h 36% 0 mm 0.0 W/m2 SCT
18:15 25.5 °C 10.1 °C 1008.7 hPa WNW 1.6 km/h 4.8 km/h 38% 0 mm 0.0 W/m2 SCT
18:30 25.3 °C 10.3 °C 1008.7 hPa Calm   3.2 km/h 39% 0 mm 0.0 W/m2 SCT
18:45 25.1 °C 10.2 °C 1008.4 hPa Calm   8 km/h 39% 0 mm 0.0 W/m2 SCT
19:00 24.9 °C 10.7 °C 1008.4 hPa Calm   3.2 km/h 41% 0 mm 0.0 W/m2 SCT
19:15 24.7 °C 10.6 °C 1008.4 hPa Calm   8 km/h 41% 0 mm 0.0 W/m2 SCT
19:30 24.5 °C 10.7 °C 1008.4 hPa Calm   4.8 km/h 42% 0 mm 0.0 W/m2 SCT
19:45 24.3 °C 10.9 °C 1008.4 hPa Calm   3.2 km/h 43% 0 mm 0.0 W/m2 SCT
20:00 24.1 °C 11.1 °C 1008 hPa Calm   3.2 km/h 44% 0 mm 0.0 W/m2 SCT
20:15 23.9 °C 11.6 °C 1008 hPa Calm   4.8 km/h 46% 0 mm 0.0 W/m2 SCT
20:30 23.6 °C 11.6 °C 1008.4 hPa Calm   1.6 km/h 47% 0 mm 0.0 W/m2 SCT
20:45 23.3 °C 11.7 °C 1008.4 hPa Calm   1.6 km/h 48% 0 mm 0.0 W/m2 SCT
21:00 23.3 °C 12 °C 1008.4 hPa Calm   1.6 km/h 49% 0 mm 0.0 W/m2 SCT
21:15 23.2 °C 12.2 °C 1008.4 hPa Calm   1.6 km/h 50% 0 mm 0.0 W/m2 SCT
21:30 23.1 °C 12.3 °C 1008.7 hPa WNW 1.6 km/h 4.8 km/h 51% 0 mm 0.0 W/m2 SCT
21:45 22.4 °C 13.2 °C 1008.7 hPa Calm   8 km/h 56% 0 mm 0.0 W/m2 SCT
22:00 21.4 °C 14.3 °C 1009.7 hPa North 1.6 km/h 4.8 km/h 64% 0 mm 0.0 W/m2 SCT
22:15 18.2 °C 14.7 °C 1008.4 hPa Calm   8 km/h 80% 0.25 mm 0.0 W/m2 SCT
22:30 17.3 °C 14.7 °C 1009 hPa Calm   1.6 km/h 85% 0.25 mm 0.0 W/m2 SCT
22:45 16.9 °C 14.7 °C 1008 hPa Calm   3.2 km/h 87% 0.25 mm 0.0 W/m2 SCT
23:00 16.8 °C 14.7 °C 1009.4 hPa NW 1.6 km/h 9.7 km/h 87% 0.51 mm 0.0 W/m2 RA
23:15 16.3 °C 14.3 °C 1010 hPa Calm   11.3 km/h 88% 1.52 mm 0.0 W/m2 SCT
23:30 15.9 °C 14.1 °C 1010 hPa Calm   8 km/h 89% 1.02 mm 0.0 W/m2 SCT
23:45 15.7 °C 13.9 °C 1008.7 hPa Calm   3.2 km/h 89% 1.02 mm 0.0 W/m2 RA
Piedmont Bend
Compliments of Weather Underground - 4 mb